Time;durP1;ratioP1;P1;durP2;ratioP2;P2;SDS_P1;SDS_P2;PMS_P1;PMS_P2;Temp;Humidity;BMP_temperature;BMP_pressure;BME280_temperature;BME280_humidity;BME280_pressure;Samples;Min_cycle;Max_cycle;Signal;HPM_P1;HPM_P2
2023/06/01 00:01:27;;;;;;;18.53;13.43;;;;;;;12.97;100.00;102221.06;5009636;28;20265;-71
2023/06/01 00:03:52;;;;;;;19.87;12.00;;;;;;;12.95;100.00;102220.13;5009084;28;20202;-70
2023/06/01 00:06:18;;;;;;;18.27;11.67;;;;;;;12.92;100.00;102212.28;5007709;28;20563;-70
2023/06/01 00:08:43;;;;;;;17.33;12.67;;;;;;;12.92;100.00;102209.72;5011256;28;20187;-70
2023/06/01 00:11:09;;;;;;;21.67;12.27;;;;;;;12.88;100.00;102211.34;5007969;28;20246;-70
2023/06/01 00:13:35;;;;;;;22.33;13.90;;;;;;;12.86;100.00;102212.97;5024921;28;20202;-70
2023/06/01 00:16:01;;;;;;;24.80;14.67;;;;;;;12.84;100.00;102216.31;4993491;28;20700;-70
2023/06/01 00:18:27;;;;;;;17.23;12.73;;;;;;;12.87;100.00;102211.28;5008758;28;20195;-70
2023/06/01 00:20:53;;;;;;;19.77;12.97;;;;;;;12.88;100.00;102217.31;5007800;28;20249;-70
2023/06/01 00:23:19;;;;;;;21.90;13.17;;;;;;;12.88;100.00;102217.31;4993175;28;20199;-71
2023/06/01 00:25:45;;;;;;;21.97;14.03;;;;;;;12.85;100.00;102213.78;5009404;28;20191;-70
2023/06/01 00:28:11;;;;;;;21.73;13.30;;;;;;;12.89;100.00;102215.63;4993253;28;20207;-70
2023/06/01 00:30:37;;;;;;;18.90;13.10;;;;;;;12.88;100.00;102213.00;5007705;28;20225;-71
2023/06/01 00:33:03;;;;;;;17.47;12.00;;;;;;;12.86;100.00;102212.97;5010126;28;20195;-71
2023/06/01 00:35:28;;;;;;;20.50;12.37;;;;;;;12.88;100.00;102214.72;4993398;28;20302;-71
2023/06/01 00:37:53;;;;;;;20.67;11.60;;;;;;;12.84;100.00;102212.06;4993121;28;20209;-71
2023/06/01 00:40:20;;;;;;;16.57;11.53;;;;;;;12.84;100.00;102209.47;5008838;28;20246;-70
2023/06/01 00:42:46;;;;;;;15.47;11.53;;;;;;;12.82;100.00;102210.25;4976577;28;20688;-70
2023/06/01 00:45:11;;;;;;;17.73;11.50;;;;;;;12.81;100.00;102209.38;4993137;28;20274;-70
2023/06/01 00:47:41;;;;;;;21.70;12.63;;;;;;;12.79;100.00;102211.03;5022907;28;20559;-70
2023/06/01 00:50:07;;;;;;;20.27;11.77;;;;;;;12.79;100.00;102208.47;4988093;28;20220;-70
2023/06/01 00:52:33;;;;;;;18.90;10.80;;;;;;;12.78;100.00;102208.41;5010191;28;20199;-70
2023/06/01 00:54:58;;;;;;;15.33;10.57;;;;;;;12.76;100.00;102205.78;5010151;28;20723;-70
2023/06/01 00:57:26;;;;;;;21.23;11.23;;;;;;;12.75;100.00;102211.75;5006997;28;20195;-70
2023/06/01 00:59:53;;;;;;;15.70;11.57;;;;;;;12.70;100.00;102208.16;4992651;28;20206;-70
2023/06/01 01:02:18;;;;;;;22.50;12.60;;;;;;;12.69;100.00;102198.72;5007976;28;20202;-70
2023/06/01 01:04:44;;;;;;;20.90;13.27;;;;;;;12.73;100.00;102205.69;4992693;28;20183;-70
2023/06/01 01:07:20;;;;;;;18.90;13.13;;;;;;;12.68;100.00;102214.09;4991878;28;20691;-70
2023/06/01 01:10:08;;;;;;;20.60;12.87;;;;;;;12.69;100.00;102201.28;5024528;28;20198;-70
2023/06/01 01:13:00;;;;;;;16.00;11.40;;;;;;;12.73;100.00;102197.97;4989268;28;20195;-70
2023/06/01 01:15:32;;;;;;;23.90;12.87;;;;;;;12.69;100.00;102193.56;4965132;28;20227;-71
2023/06/01 01:18:11;;;;;;;17.70;12.57;;;;;;;12.65;100.00;102195.97;4992644;28;20213;-71
2023/06/01 01:20:43;;;;;;;18.13;11.30;;;;;;;12.69;100.00;102200.41;5003061;28;20256;-70
2023/06/01 01:23:48;;;;;;;21.50;10.67;;;;;;;12.62;100.00;102201.00;5008010;28;20803;-70
2023/06/01 01:26:27;;;;;;;17.00;11.30;;;;;;;12.68;100.00;102199.50;4976205;28;20298;-70
2023/06/01 01:29:00;;;;;;;17.17;10.00;;;;;;;12.60;100.00;102198.41;5006424;28;20210;-70
2023/06/01 01:31:26;;;;;;;14.70;9.70;;;;;;;12.62;100.00;102190.72;4989535;28;20319;-70
2023/06/01 01:33:55;;;;;;;16.30;9.93;;;;;;;12.62;100.00;102191.63;4992346;28;20245;-70
2023/06/01 01:36:21;;;;;;;15.93;9.67;;;;;;;12.65;100.00;102199.44;4992201;28;20233;-70
2023/06/01 01:38:47;;;;;;;16.80;9.93;;;;;;;12.64;100.00;102190.00;5009757;28;20203;-70
2023/06/01 01:41:12;;;;;;;17.07;9.37;;;;;;;12.62;100.00;102198.44;4990994;28;20214;-69
2023/06/01 01:43:39;;;;;;;17.27;9.50;;;;;;;12.64;100.00;102192.56;4992115;28;20203;-69
2023/06/01 01:46:15;;;;;;;15.30;9.00;;;;;;;12.68;100.00;102194.38;5008552;28;20213;-69
2023/06/01 01:48:52;;;;;;;16.90;9.00;;;;;;;12.70;100.00;102189.28;5002438;28;20559;-70
2023/06/01 01:51:36;;;;;;;12.37;8.43;;;;;;;12.68;100.00;102178.94;4991349;28;20211;-70
2023/06/01 01:54:06;;;;;;;15.03;8.30;;;;;;;12.67;100.00;102182.34;4991424;28;20202;-70
2023/06/01 01:56:34;;;;;;;13.07;8.33;;;;;;;12.62;100.00;102181.34;5022410;28;20220;-69
2023/06/01 01:59:02;;;;;;;11.73;8.40;;;;;;;12.61;100.00;102177.03;5024464;28;20199;-70
2023/06/01 02:01:28;;;;;;;15.37;6.90;;;;;;;12.64;100.00;102177.13;4989804;28;20251;-69
2023/06/01 02:04:01;;;;;;;12.73;7.73;;;;;;;12.65;100.00;102180.56;4975356;28;20191;-70
2023/06/01 02:06:27;;;;;;;14.67;7.53;;;;;;;12.66;100.00;102177.16;4991196;28;20195;-69
2023/06/01 02:08:53;;;;;;;14.30;7.00;;;;;;;12.62;100.00;102183.03;4975133;28;20191;-70
2023/06/01 02:11:18;;;;;;;12.73;8.60;;;;;;;12.59;100.00;102176.09;5009324;28;20302;-70
2023/06/01 02:13:44;;;;;;;18.20;7.97;;;;;;;12.60;100.00;102172.72;5011547;28;20238;-69
2023/06/01 02:16:09;;;;;;;17.50;8.30;;;;;;;12.59;100.00;102172.66;4991449;28;20273;-70
2023/06/01 02:18:39;;;;;;;19.83;8.00;;;;;;;12.59;100.00;102173.50;4991240;28;20195;-70
2023/06/01 02:21:05;;;;;;;15.73;8.00;;;;;;;12.60;100.00;102166.69;4990545;28;20238;-70
2023/06/01 02:23:31;;;;;;;13.23;6.97;;;;;;;12.57;100.00;102166.59;4987115;28;20227;-70
2023/06/01 02:25:56;;;;;;;13.53;6.63;;;;;;;12.55;100.00;102169.13;4990198;28;20282;-70
2023/06/01 02:28:22;;;;;;;9.93;5.87;;;;;;;12.43;100.00;102166.16;4990118;28;20199;-70
2023/06/01 02:30:47;;;;;;;12.07;6.80;;;;;;;12.40;100.00;102166.03;5007465;28;20593;-70
2023/06/01 02:33:13;;;;;;;12.10;6.40;;;;;;;12.39;100.00;102166.00;4989914;28;20248;-69
2023/06/01 02:35:39;;;;;;;14.07;6.53;;;;;;;12.43;100.00;102163.56;4990874;28;20615;-70
2023/06/01 02:38:05;;;;;;;19.03;7.30;;;;;;;12.43;100.00;102160.13;4974902;28;20652;-70
2023/06/01 02:40:31;;;;;;;17.63;6.97;;;;;;;12.41;100.00;102164.34;4990881;28;20318;-70
2023/06/01 02:42:56;;;;;;;14.80;7.80;;;;;;;12.39;100.00;102166.84;5003179;28;20279;-70
2023/06/01 02:45:22;;;;;;;18.70;7.30;;;;;;;12.39;100.00;102161.72;4990701;28;20234;-70
2023/06/01 02:47:47;;;;;;;12.80;6.60;;;;;;;12.38;100.00;102156.53;4990816;28;20249;-70
2023/06/01 02:50:13;;;;;;;12.47;7.70;;;;;;;12.43;100.00;102157.56;4990249;28;20206;-70
2023/06/01 02:52:43;;;;;;;19.63;8.03;;;;;;;12.42;100.00;102155.81;4989511;28;20191;-69
2023/06/01 02:55:09;;;;;;;18.70;7.40;;;;;;;12.38;100.00;102151.38;5004959;28;20186;-70
2023/06/01 02:57:55;;;;;;;13.07;7.10;;;;;;;12.40;100.00;102154.91;5002442;28;20672;-70
2023/06/01 03:00:21;;;;;;;15.17;7.27;;;;;;;12.45;100.00;102153.34;4990530;28;20211;-71
2023/06/01 03:02:48;;;;;;;13.10;6.60;;;;;;;12.45;100.00;102158.50;4990219;28;20568;-70
2023/06/01 03:05:14;;;;;;;17.83;8.80;;;;;;;12.42;100.00;102160.94;4991009;28;20190;-70
2023/06/01 03:07:41;;;;;;;18.80;10.20;;;;;;;12.36;100.00;102151.34;4989421;28;20194;-70
2023/06/01 03:10:12;;;;;;;17.73;10.03;;;;;;;12.35;100.00;102154.72;4986971;28;20297;-71
2023/06/01 03:12:53;;;;;;;17.47;8.70;;;;;;;12.43;100.00;102149.84;4989484;28;20222;-71
2023/06/01 03:15:19;;;;;;;15.93;7.97;;;;;;;12.41;100.00;102142.13;4990127;28;20253;-71
2023/06/01 03:17:45;;;;;;;13.80;7.67;;;;;;;12.43;100.00;102139.56;4990721;28;20183;-70
2023/06/01 03:20:14;;;;;;;13.10;6.87;;;;;;;12.44;100.00;102142.19;5008775;28;20199;-70
2023/06/01 03:22:42;;;;;;;12.33;6.37;;;;;;;12.44;100.00;102141.34;4990362;28;20192;-70
2023/06/01 03:25:08;;;;;;;14.20;5.87;;;;;;;12.45;100.00;102135.38;4990238;28;20202;-70
2023/06/01 03:27:33;;;;;;;14.27;6.57;;;;;;;12.45;100.00;102140.50;4994497;28;20197;-71
2023/06/01 03:30:01;;;;;;;15.70;6.83;;;;;;;12.46;100.00;102137.13;5011940;28;20190;-71
2023/06/01 03:32:27;;;;;;;15.33;6.67;;;;;;;12.41;100.00;102134.41;4977626;28;20197;-71
2023/06/01 03:34:54;;;;;;;14.33;7.50;;;;;;;12.43;100.00;102143.03;4993752;28;20607;-70
2023/06/01 03:37:20;;;;;;;14.30;8.53;;;;;;;12.41;100.00;102142.13;4994326;28;20245;-71
2023/06/01 03:39:47;;;;;;;12.47;6.60;;;;;;;12.38;100.00;102131.72;4993995;28;20226;-71
2023/06/01 03:42:13;;;;;;;14.13;6.50;;;;;;;12.39;100.00;102132.63;4993153;28;20257;-70
2023/06/01 03:44:39;;;;;;;14.87;7.50;;;;;;;12.42;100.00;102138.72;4993946;28;20210;-70
2023/06/01 03:47:05;;;;;;;18.23;7.23;;;;;;;12.45;100.00;102138.78;4993298;28;20554;-70
2023/06/01 03:49:31;;;;;;;18.17;6.97;;;;;;;12.46;100.00;102131.97;5008575;28;20199;-70
2023/06/01 03:51:56;;;;;;;17.27;7.63;;;;;;;12.40;100.00;102136.91;4993479;28;20211;-70
2023/06/01 03:54:22;;;;;;;15.03;7.13;;;;;;;12.36;100.00;102128.22;5011369;28;20198;-70
2023/06/01 03:56:48;;;;;;;12.13;6.30;;;;;;;12.42;100.00;102132.69;4993632;28;20223;-70
2023/06/01 03:59:13;;;;;;;14.73;7.30;;;;;;;12.43;100.00;102127.59;4993469;28;20329;-70
2023/06/01 04:01:39;;;;;;;10.53;6.30;;;;;;;12.37;100.00;102126.53;5010127;28;20557;-70
2023/06/01 04:04:08;;;;;;;11.37;5.83;;;;;;;12.38;100.00;102126.59;4993672;28;20199;-70
2023/06/01 04:06:35;;;;;;;11.87;6.77;;;;;;;12.38;100.00;102131.72;4993162;28;20194;-70
2023/06/01 04:09:06;;;;;;;16.53;6.67;;;;;;;12.42;100.00;102132.69;4992158;28;20233;-70
2023/06/01 04:11:33;;;;;;;12.63;6.27;;;;;;;12.40;100.00;102122.34;4993263;28;20242;-69
2023/06/01 04:13:59;;;;;;;13.50;5.17;;;;;;;12.41;100.00;102124.13;4986608;28;20195;-72
2023/06/01 04:16:26;;;;;;;17.37;5.93;;;;;;;12.31;100.00;102127.19;5023539;28;20207;-71
2023/06/01 04:18:52;;;;;;;14.23;6.53;;;;;;;12.36;100.00;102125.66;4977182;28;20218;-71
2023/06/01 04:21:21;;;;;;;16.43;6.23;;;;;;;12.39;100.00;102125.75;4993095;28;20657;-71
2023/06/01 04:23:48;;;;;;;14.80;6.50;;;;;;;12.43;100.00;102125.03;4993346;28;20187;-70
2023/06/01 04:26:15;;;;;;;13.23;5.80;;;;;;;12.46;100.00;102130.28;5004822;28;20197;-71
2023/06/01 04:28:45;;;;;;;13.60;6.10;;;;;;;12.47;100.00;102131.13;5009980;28;20225;-71
2023/06/01 04:31:18;;;;;;;15.97;6.93;;;;;;;12.52;100.00;102124.44;4992595;28;20214;-71
2023/06/01 04:33:52;;;;;;;11.60;6.47;;;;;;;12.58;100.00;102130.66;5006080;28;20562;-70
2023/06/01 04:36:22;;;;;;;15.30;7.17;;;;;;;12.60;100.00;102125.56;4980253;28;20218;-70
2023/06/01 04:38:53;;;;;;;14.87;7.47;;;;;;;12.63;100.00;102123.97;5010554;28;20834;-71
2023/06/01 04:41:21;;;;;;;16.47;7.03;;;;;;;12.68;100.00;102122.41;4976518;28;20222;-70
2023/06/01 04:43:54;;;;;;;14.17;7.47;;;;;;;12.67;100.00;102114.69;5008755;28;20187;-70
2023/06/01 04:46:23;;;;;;;15.43;7.37;;;;;;;12.72;100.00;102113.97;5022080;28;20179;-70
2023/06/01 04:48:53;;;;;;;17.13;6.73;;;;;;;12.77;100.00;102111.56;4992832;28;20252;-70
2023/06/01 04:51:23;;;;;;;14.20;6.97;;;;;;;12.76;100.00;102114.97;5019071;28;20218;-71
2023/06/01 04:53:51;;;;;;;16.03;6.47;;;;;;;12.83;100.00;102109.16;4993024;28;20198;-71
2023/06/01 04:56:26;;;;;;;14.50;6.53;;;;;;;12.75;100.00;102108.06;4992850;28;20214;-71
2023/06/01 04:58:54;;;;;;;11.70;6.63;;;;;;;12.75;100.00;102111.50;4988780;28;20202;-70
2023/06/01 05:01:29;;;;;;;17.20;7.40;;;;;;;12.84;100.00;102108.34;5019810;28;20230;-70
2023/06/01 05:03:56;;;;;;;13.97;6.63;;;;;;;12.80;100.00;102103.94;4992689;28;20191;-71
2023/06/01 05:06:23;;;;;;;16.20;6.57;;;;;;;12.85;100.00;102102.38;5009670;28;20199;-71
2023/06/01 05:08:48;;;;;;;13.13;5.90;;;;;;;12.88;100.00;102103.34;4993124;28;20591;-71
2023/06/01 05:11:14;;;;;;;12.53;6.20;;;;;;;12.95;100.00;102094.97;4992211;28;20279;-70
2023/06/01 05:13:40;;;;;;;17.33;6.80;;;;;;;12.98;100.00;102098.53;4992551;28;20194;-70
2023/06/01 05:16:08;;;;;;;14.33;6.80;;;;;;;12.94;100.00;102092.34;4989694;28;20338;-71
2023/06/01 05:18:34;;;;;;;15.60;6.37;;;;;;;13.05;100.00;102087.56;4992740;28;20197;-73
2023/06/01 05:21:00;;;;;;;17.93;7.60;;;;;;;13.13;100.00;102093.81;4991973;28;20218;-71
2023/06/01 05:23:27;;;;;;;13.47;7.30;;;;;;;13.15;100.00;102087.00;4991870;28;20605;-71
2023/06/01 05:26:02;;;;;;;12.13;6.50;;;;;;;13.21;100.00;102085.47;4991693;28;20187;-74
2023/06/01 05:28:31;;;;;;;12.67;6.97;;;;;;;13.18;100.00;102075.13;4989310;28;20198;-71
2023/06/01 05:30:58;;;;;;;15.47;7.50;;;;;;;13.14;100.00;102075.88;5023314;28;20301;-72
2023/06/01 05:33:24;;;;;;;14.87;7.03;;;;;;;13.20;100.00;102072.56;4991171;28;20539;-70
2023/06/01 05:35:49;;;;;;;17.30;7.60;;;;;;;13.22;100.00;102081.22;4991870;28;20221;-71
2023/06/01 05:38:18;;;;;;;15.60;6.60;;;;;;;13.24;100.00;102074.41;4989959;28;20183;-73
2023/06/01 05:40:45;;;;;;;15.73;7.13;;;;;;;13.30;100.00;102082.31;4990549;28;20234;-75
2023/06/01 05:43:11;;;;;;;14.43;6.43;;;;;;;13.29;100.00;102078.88;4990451;28;20194;-74
2023/06/01 05:45:36;;;;;;;13.30;6.93;;;;;;;13.35;100.00;102083.31;5017950;28;20190;-73
2023/06/01 05:48:02;;;;;;;15.40;6.40;;;;;;;13.40;100.00;102084.31;4989522;28;20695;-73
2023/06/01 05:50:28;;;;;;;17.03;6.60;;;;;;;13.47;100.00;102074.22;4990859;28;20318;-73
2023/06/01 05:52:53;;;;;;;16.67;7.03;;;;;;;13.51;100.00;102072.59;4989696;28;20210;-73
2023/06/01 05:55:20;;;;;;;17.53;6.50;;;;;;;13.53;100.00;102073.53;4990495;28;20222;-73
2023/06/01 05:57:45;;;;;;;14.63;6.87;;;;;;;13.55;100.00;102075.31;4975242;28;20221;-73
2023/06/01 06:00:15;;;;;;;13.63;6.50;;;;;;;13.59;100.00;102073.69;4989678;28;20211;-73
2023/06/01 06:02:45;;;;;;;14.57;6.97;;;;;;;13.57;100.00;102072.75;4986888;28;20210;-73
2023/06/01 06:05:11;;;;;;;17.33;7.17;;;;;;;13.68;100.00;102082.50;4987240;28;20230;-73
2023/06/01 06:07:37;;;;;;;17.90;6.30;;;;;;;13.76;100.00;102073.31;5008792;28;22432;-74
2023/06/01 06:10:03;;;;;;;20.40;6.90;;;;;;;13.75;100.00;102076.72;5005408;28;20220;-74
2023/06/01 06:12:29;;;;;;;14.53;6.43;;;;;;;13.78;100.00;102070.78;5008199;28;20202;-74
2023/06/01 06:14:54;;;;;;;18.90;7.43;;;;;;;13.80;100.00;102072.56;5007459;28;20195;-73
2023/06/01 06:17:21;;;;;;;12.93;6.50;;;;;;;13.85;100.00;102075.25;4987412;28;20225;-73
2023/06/01 06:19:47;;;;;;;16.33;7.00;;;;;;;13.91;100.00;102073.69;5006379;28;20206;-73
2023/06/01 06:22:13;;;;;;;16.43;7.23;;;;;;;13.88;100.00;102073.63;5007822;28;20226;-73
2023/06/01 06:24:38;;;;;;;16.47;7.00;;;;;;;13.90;100.00;102069.38;5004514;28;20199;-73
2023/06/01 06:27:05;;;;;;;14.23;7.10;;;;;;;13.82;100.00;102073.47;5006128;28;20203;-73
2023/06/01 06:29:31;;;;;;;14.60;7.63;;;;;;;13.89;100.00;102070.22;5006274;28;20927;-72
2023/06/01 06:31:56;;;;;;;19.47;7.50;;;;;;;13.91;100.00;102065.97;5006149;28;20242;-74
2023/06/01 06:34:22;;;;;;;14.67;6.57;;;;;;;13.93;100.00;102076.31;4995599;28;20199;-75
2023/06/01 06:36:47;;;;;;;11.90;6.57;;;;;;;13.97;100.00;102072.97;4990225;28;20207;-74
2023/06/01 06:39:13;;;;;;;10.97;6.50;;;;;;;13.93;100.00;102071.16;5005775;28;20195;-74
2023/06/01 06:41:41;;;;;;;15.80;6.70;;;;;;;13.91;100.00;102058.22;5023290;28;20222;-75
2023/06/01 06:44:06;;;;;;;18.93;6.10;;;;;;;13.95;100.00;102067.78;5008323;28;20858;-75
2023/06/01 06:46:32;;;;;;;13.83;5.80;;;;;;;13.93;100.00;102053.13;5006807;28;20195;-74
2023/06/01 06:48:57;;;;;;;12.03;6.30;;;;;;;13.97;100.00;102054.94;4993685;28;20453;-74
2023/06/01 06:51:22;;;;;;;14.53;5.60;;;;;;;14.02;100.00;102058.50;5007194;28;20241;-75
2023/06/01 06:53:48;;;;;;;11.43;5.37;;;;;;;13.99;100.00;102061.88;5007721;28;20199;-74
2023/06/01 06:56:13;;;;;;;12.33;5.43;;;;;;;13.97;100.00;102057.53;5007543;28;20218;-74
2023/06/01 06:58:39;;;;;;;16.30;5.20;;;;;;;14.11;100.00;102054.47;5005006;28;20194;-73
2023/06/01 07:01:05;;;;;;;10.60;5.00;;;;;;;14.26;100.00;102069.44;4975253;28;20257;-76
2023/06/01 07:03:31;;;;;;;13.17;5.33;;;;;;;14.24;100.00;102055.66;5005208;28;20290;-75
2023/06/01 07:05:57;;;;;;;11.10;4.63;;;;;;;14.28;100.00;102044.59;5007265;28;20217;-74
2023/06/01 07:08:23;;;;;;;15.77;5.00;;;;;;;14.31;100.00;102073.88;5009505;28;20820;-75
2023/06/01 07:10:48;;;;;;;14.30;4.70;;;;;;;14.49;100.00;102055.41;4988947;28;20214;-74
2023/06/01 07:13:14;;;;;;;13.97;5.10;;;;;;;14.48;100.00;102053.66;5008023;28;20241;-74
2023/06/01 07:15:40;;;;;;;9.73;4.60;;;;;;;14.60;100.00;102047.06;5004633;28;20333;-73
2023/06/01 07:18:06;;;;;;;12.37;4.80;;;;;;;14.66;100.00;102062.69;5002350;28;20280;-74
2023/06/01 07:20:32;;;;;;;13.20;5.10;;;;;;;14.72;100.00;102055.09;4988978;28;20234;-74
2023/06/01 07:22:57;;;;;;;9.67;4.50;;;;;;;14.71;100.00;102068.81;5007041;28;20195;-74
2023/06/01 07:25:23;;;;;;;12.20;4.63;;;;;;;14.68;100.00;102067.88;5012159;28;20233;-73
2023/06/01 07:27:49;;;;;;;14.47;4.90;;;;;;;14.59;100.00;102078.00;5007495;28;20664;-74
2023/06/01 07:30:15;;;;;;;9.93;4.47;;;;;;;14.69;100.00;102059.31;5003785;28;20580;-74
2023/06/01 07:32:42;;;;;;;12.70;4.90;;;;;;;14.78;100.00;102057.78;5006128;28;20688;-74
2023/06/01 07:35:08;;;;;;;15.77;5.43;;;;;;;14.86;100.00;102039.91;5007716;28;20206;-74
2023/06/01 07:37:33;;;;;;;11.33;5.57;;;;;;;14.89;100.00;102020.22;4989120;28;20212;-74
2023/06/01 07:39:59;;;;;;;12.73;4.47;;;;;;;14.96;100.00;102036.69;4987777;28;20191;-73
2023/06/01 07:42:24;;;;;;;11.33;4.90;;;;;;;14.83;100.00;102032.13;5006499;28;20202;-73
2023/06/01 07:44:51;;;;;;;13.50;4.90;;;;;;;14.99;100.00;102031.56;4992247;28;20219;-72
2023/06/01 07:47:16;;;;;;;14.27;4.57;;;;;;;15.04;100.00;102014.47;4998676;28;20291;-74
2023/06/01 07:49:42;;;;;;;13.53;4.60;;;;;;;15.11;100.00;102006.03;5011923;28;20737;-73
2023/06/01 07:52:08;;;;;;;9.53;4.43;;;;;;;15.08;100.00;102017.16;4989832;28;20751;-73
2023/06/01 07:54:36;;;;;;;13.37;4.67;;;;;;;15.14;100.00;102009.53;5021205;28;20191;-73
2023/06/01 07:57:04;;;;;;;16.30;4.97;;;;;;;15.26;100.00;102021.81;5006747;28;20254;-73
2023/06/01 07:59:30;;;;;;;17.43;5.43;;;;;;;15.29;100.00;102027.03;5005710;28;20657;-73
2023/06/01 08:01:56;;;;;;;11.50;4.73;;;;;;;15.40;100.00;102029.03;4988360;28;20226;-74
2023/06/01 08:04:22;;;;;;;12.30;4.80;;;;;;;15.28;100.00;102026.16;4988320;28;20225;-74
2023/06/01 08:06:53;;;;;;;11.57;4.80;;;;;;;15.27;100.00;102039.91;5009821;28;20726;-74
2023/06/01 08:09:22;;;;;;;13.67;5.00;;;;;;;15.43;100.00;102043.69;5008024;28;20187;-74
2023/06/01 08:11:48;;;;;;;11.83;4.00;;;;;;;15.45;100.00;102037.72;5007935;28;20218;-74
2023/06/01 08:14:14;;;;;;;12.60;4.40;;;;;;;15.42;100.00;102040.22;5010812;28;20191;-72
2023/06/01 08:16:39;;;;;;;15.77;4.20;;;;;;;15.31;100.00;102028.81;5008252;28;20588;-73
2023/06/01 08:19:05;;;;;;;12.93;3.83;;;;;;;15.31;100.00;102025.34;5006342;28;20569;-74
2023/06/01 08:21:30;;;;;;;13.00;4.23;;;;;;;15.29;100.00;102027.91;5011429;28;20215;-73
2023/06/01 08:23:55;;;;;;;14.93;4.43;;;;;;;15.34;100.00;102038.34;5010850;28;20203;-74
2023/06/01 08:26:22;;;;;;;13.70;4.20;;;;;;;15.31;100.00;102031.41;5010802;28;20203;-73
2023/06/01 08:28:51;;;;;;;10.60;3.53;;;;;;;15.36;100.00;102018.59;4993402;28;20293;-73
2023/06/01 08:31:18;;;;;;;10.47;3.77;;;;;;;15.32;100.00;101991.81;5005868;28;20234;-74
2023/06/01 08:33:44;;;;;;;9.10;3.87;;;;;;;15.44;100.00;102010.16;4996490;28;20657;-73
2023/06/01 08:36:10;;;;;;;12.63;4.10;;;;;;;15.50;100.00;102010.28;4990593;28;20215;-73
2023/06/01 08:38:35;;;;;;;14.93;3.73;;;;;;;15.44;100.00;101993.81;4982397;28;20619;-72
2023/06/01 08:41:10;;;;;;;11.97;3.57;;;;;;;15.48;100.00;101993.88;4991832;28;20227;-73
2023/06/01 08:43:35;;;;;;;11.43;3.33;;;;;;;15.34;100.00;101979.00;4991483;28;20269;-73
2023/06/01 08:46:01;;;;;;;8.73;3.20;;;;;;;15.51;100.00;101990.50;5012150;28;20756;-74
2023/06/01 08:48:27;;;;;;;11.37;3.10;;;;;;;15.74;100.00;101951.28;5004161;28;20285;-73
2023/06/01 08:50:56;;;;;;;14.50;3.60;;;;;;;15.97;100.00;101936.16;5010644;28;20297;-74
2023/06/01 08:53:21;;;;;;;14.87;3.20;;;;;;;16.02;100.00;101943.13;5024989;28;20203;-73
2023/06/01 08:55:55;;;;;;;17.33;4.03;;;;;;;16.00;100.00;101929.31;4991804;28;20229;-74
2023/06/01 08:58:20;;;;;;;13.73;3.67;;;;;;;15.92;100.00;101920.59;5014080;28;20214;-74
2023/06/01 09:00:50;;;;;;;10.57;3.30;;;;;;;15.88;100.00;101925.69;5008228;28;20219;-72
2023/06/01 09:03:16;;;;;;;9.50;3.47;;;;;;;16.01;100.00;101956.91;5003234;28;20286;-73
2023/06/01 09:05:42;;;;;;;8.50;3.10;;;;;;;16.11;100.00;101917.41;5009805;28;20278;-73
2023/06/01 09:08:08;;;;;;;12.93;3.23;;;;;;;16.11;100.00;101926.91;4991628;28;20249;-73
2023/06/01 09:10:35;;;;;;;10.77;4.20;;;;;;;16.04;100.00;101954.38;5009200;28;20207;-73
2023/06/01 09:13:01;;;;;;;14.60;4.13;;;;;;;15.99;100.00;101965.47;5012460;28;20198;-73
2023/06/01 09:15:26;;;;;;;9.90;3.50;;;;;;;15.86;100.00;101976.44;5006229;28;20303;-73
2023/06/01 09:18:05;;;;;;;13.30;3.70;;;;;;;16.05;100.00;101981.94;5006901;28;20860;-73
2023/06/01 09:20:31;;;;;;;7.70;3.57;;;;;;;16.25;100.00;101952.06;5010161;28;20277;-73
2023/06/01 09:22:57;;;;;;;10.67;2.93;;;;;;;16.22;100.00;101957.22;5006594;28;20263;-73
2023/06/01 09:25:31;;;;;;;8.33;3.40;;;;;;;16.27;100.00;101941.75;4997877;28;20199;-72
2023/06/01 09:27:59;;;;;;;10.07;3.33;;;;;;;16.20;100.00;101914.97;5009301;28;20206;-73
2023/06/01 09:30:38;;;;;;;15.53;3.63;;;;;;;16.12;100.00;101929.47;4989240;28;20234;-73
2023/06/01 09:33:23;;;;;;;7.57;3.00;;;;;;;16.06;100.00;101939.75;5002084;28;20256;-72
2023/06/01 09:35:49;;;;;;;8.30;2.90;;;;;;;16.11;100.00;101929.50;5001564;28;20221;-72
2023/06/01 09:38:23;;;;;;;9.03;3.00;;;;;;;16.36;100.00;101947.06;5009248;28;20249;-73
2023/06/01 09:40:59;;;;;;;7.77;2.80;;;;;;;16.35;100.00;101947.91;5005711;28;20215;-73
2023/06/01 09:43:25;;;;;;;8.53;3.17;;;;;;;16.30;100.00;101928.91;4977008;28;20187;-73
2023/06/01 09:46:13;;;;;;;6.33;3.00;;;;;;;16.46;100.00;101905.00;5005551;28;20641;-73
2023/06/01 09:48:39;;;;;;;8.53;2.60;;;;;;;16.49;100.00;101912.81;5009422;28;20199;-73
2023/06/01 09:51:19;;;;;;;8.83;2.57;;;;;;;16.13;100.00;101940.69;4993078;28;20222;-73
2023/06/01 09:53:45;;;;;;;6.67;2.87;;;;;;;16.36;100.00;101939.31;5007807;28;20229;-73
2023/06/01 09:56:11;;;;;;;9.80;3.43;;;;;;;16.24;100.00;101936.53;5007597;28;20371;-74
2023/06/01 09:58:39;;;;;;;10.23;2.87;;;;;;;16.54;100.00;101905.97;4975419;28;20195;-75
2023/06/01 10:01:08;;;;;;;8.20;3.10;;;;;;;16.45;100.00;101844.66;5006199;28;20587;-74
2023/06/01 10:03:33;;;;;;;11.57;2.93;;;;;;;16.65;100.00;101861.28;4988086;28;20206;-74
2023/06/01 10:06:00;;;;;;;9.63;3.93;;;;;;;16.69;100.00;101873.38;5009505;28;20187;-73
2023/06/01 10:08:26;;;;;;;8.17;3.03;;;;;;;16.99;100.00;101823.69;5009078;28;20206;-73
2023/06/01 10:10:52;;;;;;;6.13;2.63;;;;;;;16.80;100.00;101772.63;4997306;28;20229;-74
2023/06/01 10:13:17;;;;;;;9.53;3.40;;;;;;;17.05;100.00;101801.31;5006096;28;20202;-74
2023/06/01 10:15:43;;;;;;;7.13;2.40;;;;;;;17.11;100.00;101772.00;4991164;28;20246;-73
2023/06/01 10:18:08;;;;;;;7.83;3.00;;;;;;;17.03;100.00;101796.94;4994025;28;20588;-74
2023/06/01 10:20:35;;;;;;;10.97;3.17;;;;;;;17.06;100.00;101761.63;5003596;28;20227;-73
2023/06/01 10:23:02;;;;;;;8.43;2.77;;;;;;;17.32;100.00;101751.44;5009969;28;20219;-73
2023/06/01 10:25:49;;;;;;;9.10;3.20;;;;;;;17.47;100.00;101694.59;5007491;28;20200;-74
2023/06/01 10:28:17;;;;;;;7.67;3.20;;;;;;;17.76;100.00;101677.44;5002971;28;20214;-73
2023/06/01 10:30:42;;;;;;;8.67;3.37;;;;;;;17.74;100.00;101672.25;5003677;28;20211;-73
2023/06/01 10:33:07;;;;;;;12.77;3.37;;;;;;;17.74;100.00;101638.56;5001176;28;20724;-73
2023/06/01 10:35:41;;;;;;;12.87;3.27;;;;;;;18.04;100.00;101630.00;5007829;28;20688;-73
2023/06/01 10:38:07;;;;;;;10.50;3.20;;;;;;;18.15;100.00;101660.25;5007111;28;20589;-73
2023/06/01 10:40:33;;;;;;;10.50;3.30;;;;;;;17.98;100.00;101633.47;5006723;28;20219;-73
2023/06/01 10:42:59;;;;;;;12.07;3.87;;;;;;;17.74;100.00;101667.06;5003377;28;20291;-73
2023/06/01 10:45:40;;;;;;;8.20;3.53;;;;;;;17.80;100.00;101661.06;5004967;28;20207;-73
2023/06/01 10:48:07;;;;;;;14.73;3.50;;;;;;;18.15;96.80;101618.78;5000829;28;20668;-73
2023/06/01 10:50:35;;;;;;;11.80;3.30;;;;;;;18.37;100.00;101637.88;5004721;28;20233;-73
2023/06/01 10:53:33;;;;;;;11.77;3.13;;;;;;;18.58;96.04;101611.91;5008282;28;20234;-73
2023/06/01 10:56:26;;;;;;;11.13;3.10;;;;;;;18.44;98.10;101624.91;4961265;28;20300;-73
2023/06/01 10:59:07;;;;;;;9.43;3.07;;;;;;;18.28;100.00;101656.00;5003508;28;20215;-73
2023/06/01 11:01:41;;;;;;;7.67;3.10;;;;;;;18.51;99.18;101649.13;5002157;28;20219;-73
2023/06/01 11:04:07;;;;;;;8.93;3.33;;;;;;;18.30;100.00;101664.63;5001749;28;20631;-73
2023/06/01 11:06:35;;;;;;;10.03;3.20;;;;;;;18.23;100.00;101658.56;5008034;28;20191;-73
2023/06/01 11:09:06;;;;;;;7.97;3.13;;;;;;;18.25;99.89;101664.63;5007994;28;20289;-73
2023/06/01 11:11:55;;;;;;;8.87;3.40;;;;;;;18.32;98.88;101653.38;5005056;28;20273;-73
2023/06/01 11:14:23;;;;;;;13.07;3.60;;;;;;;18.44;100.00;101643.06;5005202;28;20989;-74